Time;durP1;ratioP1;P1;durP2;ratioP2;P2;SDS_P1;SDS_P2;PMS_P1;PMS_P2;Temp;Humidity;BMP_temperature;BMP_pressure;BME280_temperature;BME280_humidity;BME280_pressure;Samples;Min_cycle;Max_cycle;Signal;HPM_P1;HPM_P2
2022/06/30 00:01:18;;;;;;;12.47;6.70;;;;;;;;;;1711856;84;21048;-69
2022/06/30 00:03:45;;;;;;;10.93;7.20;;;;;;;;;;1717408;82;21013;-69
2022/06/30 00:06:11;;;;;;;8.20;7.30;;;;;;;;;;1738680;82;21068;-69
2022/06/30 00:08:38;;;;;;;8.95;5.78;;;;;;;;;;1750083;82;21489;-69
2022/06/30 00:11:07;;;;;;;8.35;6.17;;;;;;;;;;1717539;82;21109;-70
2022/06/30 00:13:34;;;;;;;8.45;6.30;;;;;;;;;;1717994;82;21061;-69
2022/06/30 00:16:01;;;;;;;8.70;7.00;;;;;;;;;;1721911;83;21010;-69
2022/06/30 00:18:27;;;;;;;7.12;6.40;;;;;;;;;;1723099;82;21556;-70
2022/06/30 00:20:53;;;;;;;9.30;6.10;;;;;;;;;;1734039;82;21068;-70
2022/06/30 00:23:19;;;;;;;9.45;6.72;;;;;;;;;;1727271;82;21073;-70
2022/06/30 00:25:45;;;;;;;11.08;6.92;;;;;;;;;;1720592;83;21072;-70
2022/06/30 00:28:12;;;;;;;9.85;6.87;;;;;;;;;;1722142;82;21552;-70
2022/06/30 00:30:38;;;;;;;9.50;6.90;;;;;;;;;;1708365;82;21125;-70
2022/06/30 00:33:04;;;;;;;7.92;7.03;;;;;;;;;;1726744;82;21069;-71
2022/06/30 00:35:30;;;;;;;9.58;6.85;;;;;;;;;;1742220;82;21009;-69
2022/06/30 00:37:58;;;;;;;7.80;6.37;;;;;;;;;;1740111;82;21080;-69
2022/06/30 00:40:24;;;;;;;10.30;7.60;;;;;;;;;;1722884;80;21162;-69
2022/06/30 00:42:50;;;;;;;9.50;8.05;;;;;;;;;;1741562;82;21105;-69
2022/06/30 00:45:16;;;;;;;9.60;6.25;;;;;;;;;;1746297;81;22335;-69
2022/06/30 00:47:43;;;;;;;9.10;6.40;;;;;;;;;;1709240;84;21018;-68
2022/06/30 00:50:09;;;;;;;10.63;7.28;;;;;;;;;;1706149;82;21109;-69
2022/06/30 00:52:36;;;;;;;8.38;6.67;;;;;;;;;;1706570;84;21124;-69
2022/06/30 00:55:02;;;;;;;8.68;7.80;;;;;;;;;;1698948;84;21045;-69
2022/06/30 00:57:29;;;;;;;11.05;7.25;;;;;;;;;;1701291;82;21085;-69
2022/06/30 00:59:55;;;;;;;8.58;6.75;;;;;;;;;;1723260;82;21576;-69
2022/06/30 01:05:11;;;;;;;9.98;6.35;;;;;;;;;;1712916;83;21080;-67
2022/06/30 01:07:39;;;;;;;14.03;7.08;;;;;;;;;;1725882;82;22115;-67
2022/06/30 01:12:50;;;;;;;10.03;8.60;;;;;;;;;;1717794;83;21049;-67
2022/06/30 01:15:18;;;;;;;9.45;7.50;;;;;;;;;;1711497;83;21613;-68
2022/06/30 01:17:44;;;;;;;10.00;7.20;;;;;;;;;;1719217;83;21077;-67
2022/06/30 01:20:10;;;;;;;9.00;8.08;;;;;;;;;;1723355;82;21040;-67
2022/06/30 01:22:37;;;;;;;8.70;6.22;;;;;;;;;;1732587;83;21530;-68
2022/06/30 01:25:04;;;;;;;8.20;6.60;;;;;;;;;;1713772;83;21071;-68
2022/06/30 01:27:30;;;;;;;8.73;7.03;;;;;;;;;;1709511;83;21035;-68
2022/06/30 01:29:57;;;;;;;8.18;6.70;;;;;;;;;;1709305;84;21601;-67
2022/06/30 01:32:25;;;;;;;7.45;6.40;;;;;;;;;;1709434;83;21039;-67
2022/06/30 01:34:52;;;;;;;9.80;8.30;;;;;;;;;;1721779;82;21092;-68
2022/06/30 01:37:18;;;;;;;11.45;7.05;;;;;;;;;;1717666;83;21007;-67
2022/06/30 01:39:44;;;;;;;8.95;6.60;;;;;;;;;;1707597;84;21044;-67
2022/06/30 01:42:11;;;;;;;9.03;8.13;;;;;;;;;;1706747;84;21610;-68
2022/06/30 01:44:38;;;;;;;9.55;6.97;;;;;;;;;;1709534;83;21076;-67
2022/06/30 01:47:04;;;;;;;13.13;7.78;;;;;;;;;;1719373;83;21076;-67
2022/06/30 01:49:31;;;;;;;7.85;6.22;;;;;;;;;;1727418;82;21078;-67
2022/06/30 01:51:57;;;;;;;9.15;8.25;;;;;;;;;;1725573;83;21515;-67
2022/06/30 01:54:23;;;;;;;9.45;6.50;;;;;;;;;;1716098;83;21075;-67
2022/06/30 01:56:50;;;;;;;10.65;6.92;;;;;;;;;;1714037;83;21016;-67
2022/06/30 01:59:16;;;;;;;11.18;8.70;;;;;;;;;;1710241;83;21058;-67
2022/06/30 02:01:42;;;;;;;12.30;7.90;;;;;;;;;;1717640;83;21064;-68
2022/06/30 02:06:49;;;;;;;9.90;8.90;;;;;;;;;;1697103;81;21063;-67
2022/06/30 02:09:15;;;;;;;11.30;9.33;;;;;;;;;;1764094;81;21035;-67
2022/06/30 02:11:41;;;;;;;11.28;10.08;;;;;;;;;;1762922;81;21062;-67
2022/06/30 02:14:08;;;;;;;9.78;7.60;;;;;;;;;;1729973;83;21041;-67
2022/06/30 02:16:34;;;;;;;11.60;9.23;;;;;;;;;;1721731;83;22044;-68
2022/06/30 02:19:00;;;;;;;10.95;8.45;;;;;;;;;;1744372;81;21523;-68
2022/06/30 02:21:27;;;;;;;9.85;8.25;;;;;;;;;;1727353;81;21081;-69
2022/06/30 02:23:53;;;;;;;12.63;8.63;;;;;;;;;;1721884;83;21480;-68
2022/06/30 02:26:20;;;;;;;10.45;8.55;;;;;;;;;;1721204;83;21052;-68
2022/06/30 02:28:46;;;;;;;11.00;7.03;;;;;;;;;;1721615;83;21037;-68
2022/06/30 02:31:12;;;;;;;11.10;8.05;;;;;;;;;;1721300;83;21158;-68
2022/06/30 02:33:40;;;;;;;10.38;8.40;;;;;;;;;;1731477;81;21056;-68
2022/06/30 02:36:06;;;;;;;10.82;8.43;;;;;;;;;;1719967;83;21039;-67
2022/06/30 02:38:33;;;;;;;10.25;7.05;;;;;;;;;;1720854;82;21510;-68
2022/06/30 02:40:59;;;;;;;8.70;6.87;;;;;;;;;;1719975;83;21046;-68
2022/06/30 02:43:26;;;;;;;9.10;7.12;;;;;;;;;;1720222;83;21048;-67
2022/06/30 02:45:52;;;;;;;9.35;7.35;;;;;;;;;;1721585;83;21073;-67
2022/06/30 02:48:18;;;;;;;9.75;8.10;;;;;;;;;;1721450;81;21056;-68
2022/06/30 02:50:45;;;;;;;8.08;6.15;;;;;;;;;;1733925;83;21543;-67
2022/06/30 02:53:11;;;;;;;8.70;6.92;;;;;;;;;;1733792;83;21624;-67
2022/06/30 02:55:38;;;;;;;7.62;6.20;;;;;;;;;;1720501;83;21177;-67
2022/06/30 02:58:04;;;;;;;9.55;8.05;;;;;;;;;;1720169;83;21070;-68
2022/06/30 03:00:31;;;;;;;8.25;6.75;;;;;;;;;;1719665;83;21081;-68
2022/06/30 03:02:57;;;;;;;8.70;6.62;;;;;;;;;;1730191;81;21052;-67
2022/06/30 03:05:24;;;;;;;9.35;7.80;;;;;;;;;;1744339;81;21052;-68
2022/06/30 03:07:50;;;;;;;10.63;6.17;;;;;;;;;;1739330;82;21032;-68
2022/06/30 03:10:17;;;;;;;8.93;6.28;;;;;;;;;;1739190;82;21090;-69
2022/06/30 03:12:43;;;;;;;8.93;6.90;;;;;;;;;;1742179;81;21076;-68
2022/06/30 03:15:10;;;;;;;9.78;7.92;;;;;;;;;;1741834;82;21089;-68
2022/06/30 03:17:36;;;;;;;8.28;5.67;;;;;;;;;;1738696;81;21054;-68
2022/06/30 03:20:03;;;;;;;8.93;5.95;;;;;;;;;;1754986;81;21510;-68
2022/06/30 03:22:29;;;;;;;7.65;6.00;;;;;;;;;;1744623;81;21095;-68
2022/06/30 03:24:55;;;;;;;8.40;5.95;;;;;;;;;;1737890;82;21149;-67
2022/06/30 03:27:21;;;;;;;8.18;6.75;;;;;;;;;;1737833;82;21606;-67
2022/06/30 03:29:48;;;;;;;7.28;5.20;;;;;;;;;;1739087;82;21119;-69
2022/06/30 03:32:14;;;;;;;7.08;5.28;;;;;;;;;;1739458;81;21101;-68
2022/06/30 03:34:40;;;;;;;7.10;5.92;;;;;;;;;;1745870;81;21028;-67
2022/06/30 03:37:06;;;;;;;6.55;4.97;;;;;;;;;;1739040;82;21478;-69
2022/06/30 03:39:32;;;;;;;7.08;6.37;;;;;;;;;;1739108;81;21047;-68
2022/06/30 03:42:00;;;;;;;7.42;5.05;;;;;;;;;;1739300;82;21079;-67
2022/06/30 03:44:26;;;;;;;5.85;5.03;;;;;;;;;;1738386;82;21028;-68
2022/06/30 03:46:52;;;;;;;7.35;6.00;;;;;;;;;;1738350;82;21564;-68
2022/06/30 03:49:18;;;;;;;6.72;6.03;;;;;;;;;;1752264;81;20986;-67
2022/06/30 03:51:44;;;;;;;8.38;4.92;;;;;;;;;;1770535;81;21058;-67
2022/06/30 03:54:11;;;;;;;7.12;5.20;;;;;;;;;;1754755;81;21071;-67
2022/06/30 03:56:37;;;;;;;7.75;6.08;;;;;;;;;;1739454;81;21087;-68
2022/06/30 03:59:03;;;;;;;6.75;5.85;;;;;;;;;;1739437;82;21599;-68
2022/06/30 04:01:31;;;;;;;10.13;7.30;;;;;;;;;;1739228;81;21111;-68
2022/06/30 04:03:58;;;;;;;9.15;6.28;;;;;;;;;;1745452;81;21020;-68
2022/06/30 04:06:23;;;;;;;9.08;6.83;;;;;;;;;;1719383;83;21416;-68
2022/06/30 04:08:49;;;;;;;10.23;7.42;;;;;;;;;;1719999;83;21027;-69
2022/06/30 04:11:17;;;;;;;10.43;8.65;;;;;;;;;;1719576;83;21514;-68
2022/06/30 04:13:45;;;;;;;11.88;8.55;;;;;;;;;;1726922;83;21060;-68
2022/06/30 04:16:11;;;;;;;10.55;9.43;;;;;;;;;;1722543;83;21064;-69
2022/06/30 04:18:37;;;;;;;10.85;8.25;;;;;;;;;;1757284;81;21583;-69
2022/06/30 04:21:04;;;;;;;9.50;8.50;;;;;;;;;;1744041;81;21082;-69
2022/06/30 04:23:30;;;;;;;10.28;8.75;;;;;;;;;;1724950;83;21060;-69
2022/06/30 04:25:56;;;;;;;9.00;7.70;;;;;;;;;;1699339;83;21105;-67
2022/06/30 04:28:22;;;;;;;8.28;7.25;;;;;;;;;;1719597;83;21690;-67
2022/06/30 04:33:32;;;;;;;6.80;6.05;;;;;;;;;;1742048;81;21043;-68
2022/06/30 04:35:58;;;;;;;6.83;5.75;;;;;;;;;;1738903;82;21456;-68
2022/06/30 04:38:24;;;;;;;6.42;5.37;;;;;;;;;;1725506;82;21026;-69
2022/06/30 04:43:35;;;;;;;5.45;4.58;;;;;;;;;;1729102;82;21069;-68
2022/06/30 04:46:02;;;;;;;6.92;6.05;;;;;;;;;;1721784;82;21090;-68
2022/06/30 04:48:28;;;;;;;6.75;6.08;;;;;;;;;;1722601;81;21023;-68
2022/06/30 04:50:54;;;;;;;5.92;5.00;;;;;;;;;;1724152;81;21098;-68
2022/06/30 04:53:20;;;;;;;7.35;5.60;;;;;;;;;;1722337;81;21207;-69
2022/06/30 04:55:47;;;;;;;5.08;4.58;;;;;;;;;;1722277;81;21129;-69
2022/06/30 04:58:13;;;;;;;4.90;4.40;;;;;;;;;;1733580;81;21108;-70
2022/06/30 05:00:39;;;;;;;5.75;4.97;;;;;;;;;;1723568;82;21133;-68
2022/06/30 05:03:05;;;;;;;5.58;4.80;;;;;;;;;;1722593;82;21153;-67
2022/06/30 05:05:32;;;;;;;6.47;5.08;;;;;;;;;;1743294;81;21059;-67
2022/06/30 05:07:58;;;;;;;7.20;5.30;;;;;;;;;;1752911;81;21500;-68
2022/06/30 05:10:25;;;;;;;5.97;5.12;;;;;;;;;;1735551;81;21423;-66
2022/06/30 05:12:52;;;;;;;6.20;5.45;;;;;;;;;;1731463;81;21060;-67
2022/06/30 05:15:18;;;;;;;6.47;5.78;;;;;;;;;;1734876;83;21030;-68
2022/06/30 05:17:45;;;;;;;6.53;5.03;;;;;;;;;;1734763;83;21037;-67
2022/06/30 05:20:11;;;;;;;5.40;4.90;;;;;;;;;;1749201;81;21041;-67
2022/06/30 05:22:37;;;;;;;4.95;4.47;;;;;;;;;;1757079;81;21062;-69
2022/06/30 05:27:49;;;;;;;4.45;3.45;;;;;;;;;;1742426;81;21264;-69
2022/06/30 05:30:15;;;;;;;3.92;3.52;;;;;;;;;;1732771;83;21018;-68
2022/06/30 05:32:42;;;;;;;4.28;3.85;;;;;;;;;;1751912;81;21573;-68
2022/06/30 05:35:09;;;;;;;4.97;3.87;;;;;;;;;;1725278;81;21100;-68
2022/06/30 05:38:39;;;;;;;4.53;3.75;;;;;;;;;;1796811;79;22895;-68
2022/06/30 05:41:06;;;;;;;4.10;3.30;;;;;;;;;;1765253;80;21013;-69
2022/06/30 05:43:32;;;;;;;4.33;3.87;;;;;;;;;;1791033;80;21051;-68
2022/06/30 05:45:58;;;;;;;4.10;3.70;;;;;;;;;;1789815;80;21069;-68
2022/06/30 05:48:24;;;;;;;5.00;3.50;;;;;;;;;;1786613;79;21032;-68
2022/06/30 05:50:50;;;;;;;4.22;3.65;;;;;;;;;;1792765;80;21012;-68
2022/06/30 05:53:17;;;;;;;4.72;3.58;;;;;;;;;;1792853;80;21110;-68
2022/06/30 05:55:43;;;;;;;4.55;3.80;;;;;;;;;;1792655;80;21044;-69
2022/06/30 05:58:09;;;;;;;4.10;3.27;;;;;;;;;;1784845;80;21006;-69
2022/06/30 06:00:36;;;;;;;4.17;3.58;;;;;;;;;;1771215;80;21008;-69
2022/06/30 06:03:02;;;;;;;4.53;3.47;;;;;;;;;;1761338;80;21071;-69
2022/06/30 06:05:28;;;;;;;4.20;3.80;;;;;;;;;;1786335;80;21016;-69
2022/06/30 06:07:54;;;;;;;5.40;4.08;;;;;;;;;;1782367;79;21379;-69
2022/06/30 06:10:21;;;;;;;3.87;3.50;;;;;;;;;;1755454;82;21052;-69
2022/06/30 06:12:48;;;;;;;3.85;3.50;;;;;;;;;;1764366;80;21595;-69
2022/06/30 06:15:14;;;;;;;5.45;4.03;;;;;;;;;;1786257;80;20993;-68
2022/06/30 06:17:41;;;;;;;4.60;3.87;;;;;;;;;;1764690;80;21040;-69
2022/06/30 06:20:08;;;;;;;4.97;4.17;;;;;;;;;;1768621;80;21579;-68
2022/06/30 06:22:34;;;;;;;4.37;3.90;;;;;;;;;;1780736;80;21083;-68
2022/06/30 06:25:02;;;;;;;4.25;3.85;;;;;;;;;;1785947;80;21016;-68
2022/06/30 06:27:28;;;;;;;4.83;3.60;;;;;;;;;;1785149;79;20964;-66
2022/06/30 06:29:54;;;;;;;4.70;4.20;;;;;;;;;;1777477;79;22155;-68
2022/06/30 06:32:22;;;;;;;4.35;3.95;;;;;;;;;;1775904;80;21056;-67
2022/06/30 06:34:48;;;;;;;4.00;3.60;;;;;;;;;;1771479;80;21037;-68
2022/06/30 06:37:14;;;;;;;4.55;3.65;;;;;;;;;;1760755;80;20969;-69
2022/06/30 06:39:40;;;;;;;3.62;3.30;;;;;;;;;;1763461;80;21060;-69
2022/06/30 06:42:07;;;;;;;3.42;3.10;;;;;;;;;;1773849;81;21511;-69
2022/06/30 06:44:35;;;;;;;4.40;3.35;;;;;;;;;;1775177;81;21177;-68
2022/06/30 06:47:01;;;;;;;4.20;3.58;;;;;;;;;;1771099;81;21065;-69
2022/06/30 06:49:28;;;;;;;4.28;3.33;;;;;;;;;;1771952;80;20979;-67
2022/06/30 06:51:54;;;;;;;5.12;4.12;;;;;;;;;;1754848;80;22301;-67
2022/06/30 06:54:21;;;;;;;6.05;3.98;;;;;;;;;;1773115;80;21037;-68
2022/06/30 06:56:47;;;;;;;4.53;3.85;;;;;;;;;;1778838;81;21017;-68
2022/06/30 06:59:12;;;;;;;4.95;3.92;;;;;;;;;;1751716;81;21076;-69
2022/06/30 07:01:38;;;;;;;4.28;3.83;;;;;;;;;;1774160;79;22250;-70
2022/06/30 07:04:05;;;;;;;4.25;3.67;;;;;;;;;;1777604;81;21099;-68
2022/06/30 07:06:33;;;;;;;4.37;3.85;;;;;;;;;;1719033;82;21045;-70
2022/06/30 07:09:00;;;;;;;4.90;3.87;;;;;;;;;;1772664;80;21039;-68
2022/06/30 07:11:27;;;;;;;4.00;3.60;;;;;;;;;;1778979;80;21048;-68
2022/06/30 07:13:54;;;;;;;5.25;4.03;;;;;;;;;;1765417;81;21009;-68
2022/06/30 07:16:20;;;;;;;4.40;3.80;;;;;;;;;;1766304;80;21563;-67
2022/06/30 07:18:46;;;;;;;4.97;4.22;;;;;;;;;;1782625;80;21056;-69
2022/06/30 07:21:14;;;;;;;3.95;3.33;;;;;;;;;;1776444;80;22050;-66
2022/06/30 07:23:40;;;;;;;4.42;3.60;;;;;;;;;;1774523;81;21041;-68
2022/06/30 07:26:06;;;;;;;3.95;3.55;;;;;;;;;;1777105;81;21086;-68
2022/06/30 07:28:34;;;;;;;4.80;3.80;;;;;;;;;;1771665;80;21485;-68
2022/06/30 07:31:00;;;;;;;4.37;3.40;;;;;;;;;;1749147;81;21071;-68
2022/06/30 07:33:27;;;;;;;3.95;3.52;;;;;;;;;;1773187;80;20985;-66
2022/06/30 07:35:52;;;;;;;6.90;4.78;;;;;;;;;;1775594;80;21140;-70
2022/06/30 07:38:20;;;;;;;43.17;33.80;;;;;;;;;;1755088;80;21670;-69
2022/06/30 07:40:46;;;;;;;40.08;34.38;;;;;;;;;;1753265;80;20973;-72
2022/06/30 07:43:12;;;;;;;8.00;7.17;;;;;;;;;;1772035;80;21040;-70
2022/06/30 07:45:38;;;;;;;6.55;4.15;;;;;;;;;;1777155;80;21496;-70
2022/06/30 07:48:04;;;;;;;4.60;3.65;;;;;;;;;;1776443;80;20954;-70
2022/06/30 07:50:31;;;;;;;4.87;3.47;;;;;;;;;;1767858;80;21035;-69
2022/06/30 07:52:57;;;;;;;3.98;3.55;;;;;;;;;;1768605;80;21008;-71
2022/06/30 07:55:23;;;;;;;4.10;3.67;;;;;;;;;;1782245;80;21480;-68
2022/06/30 07:57:49;;;;;;;4.28;3.83;;;;;;;;;;1780273;80;21012;-70
2022/06/30 08:00:15;;;;;;;4.22;3.67;;;;;;;;;;1787611;79;21520;-68
2022/06/30 08:02:42;;;;;;;4.42;3.87;;;;;;;;;;1782727;80;20985;-68
2022/06/30 08:05:08;;;;;;;5.37;4.35;;;;;;;;;;1761097;80;21001;-69
2022/06/30 08:07:35;;;;;;;4.05;3.58;;;;;;;;;;1773556;80;21048;-72
2022/06/30 08:10:02;;;;;;;3.83;3.42;;;;;;;;;;1771723;80;21060;-73
2022/06/30 08:12:28;;;;;;;4.33;3.92;;;;;;;;;;1781149;80;20981;-72
2022/06/30 08:14:55;;;;;;;5.22;3.70;;;;;;;;;;1783234;80;21021;-69
2022/06/30 08:17:24;;;;;;;4.28;3.72;;;;;;;;;;1784482;80;21021;-69
2022/06/30 08:19:50;;;;;;;4.75;3.90;;;;;;;;;;1784275;80;21010;-70
2022/06/30 08:22:16;;;;;;;4.35;3.60;;;;;;;;;;1756526;80;21506;-73
2022/06/30 08:24:42;;;;;;;4.78;3.85;;;;;;;;;;1781503;80;20985;-71
2022/06/30 08:27:10;;;;;;;4.83;3.87;;;;;;;;;;1787058;80;21044;-70
2022/06/30 08:29:37;;;;;;;5.97;4.40;;;;;;;;;;1761673;80;21084;-70
2022/06/30 08:32:03;;;;;;;5.08;4.42;;;;;;;;;;1769839;80;21029;-70
2022/06/30 08:34:29;;;;;;;4.28;3.87;;;;;;;;;;1781927;80;21001;-72
2022/06/30 08:36:55;;;;;;;6.17;4.30;;;;;;;;;;1786633;80;21056;-71
2022/06/30 08:42:07;;;;;;;5.53;4.00;;;;;;;;;;1786148;80;20996;-72
2022/06/30 08:44:34;;;;;;;4.85;4.08;;;;;;;;;;1785100;80;21091;-72
2022/06/30 08:47:02;;;;;;;5.25;3.80;;;;;;;;;;1774832;80;21028;-71
2022/06/30 08:49:29;;;;;;;5.85;4.30;;;;;;;;;;1785911;80;21047;-68
2022/06/30 08:51:55;;;;;;;4.97;4.15;;;;;;;;;;1783643;80;20998;-68
2022/06/30 08:54:22;;;;;;;4.50;4.10;;;;;;;;;;1786600;80;21049;-68
2022/06/30 08:56:48;;;;;;;5.53;4.00;;;;;;;;;;1760610;80;21033;-68
2022/06/30 08:59:14;;;;;;;4.92;4.25;;;;;;;;;;1770464;80;21495;-67
2022/06/30 09:01:41;;;;;;;5.58;4.35;;;;;;;;;;1779898;79;21143;-68
2022/06/30 09:04:09;;;;;;;6.10;4.72;;;;;;;;;;1779526;80;21067;-71
2022/06/30 09:06:35;;;;;;;5.55;4.53;;;;;;;;;;1787575;80;21095;-71
2022/06/30 09:09:01;;;;;;;7.25;4.47;;;;;;;;;;1784683;80;21044;-75
2022/06/30 09:11:44;;;;;;;5.15;4.62;;;;;;;;;;1784570;80;21024;-70
2022/06/30 09:14:10;;;;;;;6.50;5.87;;;;;;;;;;1778163;80;21048;-69
2022/06/30 09:16:37;;;;;;;28.52;24.02;;;;;;;;;;1786903;80;21013;-70
2022/06/30 09:19:05;;;;;;;13.38;11.95;;;;;;;;;;1731357;80;21608;-69
2022/06/30 09:21:33;;;;;;;8.80;6.60;;;;;;;;;;1761666;80;21001;-68
2022/06/30 09:23:59;;;;;;;6.37;5.78;;;;;;;;;;1776534;80;21065;-68
2022/06/30 09:26:25;;;;;;;7.78;5.37;;;;;;;;;;1769799;80;20958;-69
2022/06/30 09:28:56;;;;;;;6.60;5.10;;;;;;;;;;1769101;80;21013;-69
2022/06/30 09:31:38;;;;;;;6.55;5.20;;;;;;;;;;1777894;80;20993;-68
2022/06/30 09:34:19;;;;;;;5.67;5.00;;;;;;;;;;1776844;80;21524;-68
2022/06/30 09:36:46;;;;;;;7.05;5.33;;;;;;;;;;1786030;80;21056;-66
2022/06/30 09:39:13;;;;;;;5.67;4.97;;;;;;;;;;1735505;81;21166;-70
2022/06/30 09:41:40;;;;;;;5.12;4.62;;;;;;;;;;1761422;80;21060;-70
2022/06/30 09:44:11;;;;;;;5.60;5.00;;;;;;;;;;1766947;81;21032;-70
2022/06/30 09:46:36;;;;;;;5.17;4.53;;;;;;;;;;1772954;80;21555;-70
2022/06/30 09:49:03;;;;;;;4.95;4.25;;;;;;;;;;1776551;80;21045;-68
2022/06/30 09:51:30;;;;;;;6.22;4.30;;;;;;;;;;1778650;80;21532;-69
2022/06/30 09:54:06;;;;;;;5.20;4.70;;;;;;;;;;1781387;80;21021;-69
2022/06/30 09:56:34;;;;;;;5.90;5.12;;;;;;;;;;1779119;80;21523;-71
2022/06/30 09:59:00;;;;;;;5.42;4.62;;;;;;;;;;1763780;80;21029;-70
2022/06/30 10:01:26;;;;;;;5.50;4.90;;;;;;;;;;1767970;79;22375;-70
2022/06/30 10:03:58;;;;;;;5.40;4.90;;;;;;;;;;1774156;80;21032;-69
2022/06/30 10:06:23;;;;;;;7.17;4.37;;;;;;;;;;1772926;80;21085;-69
2022/06/30 10:08:49;;;;;;;4.78;4.25;;;;;;;;;;1769070;80;21059;-71
2022/06/30 10:11:16;;;;;;;4.95;4.30;;;;;;;;;;1767027;80;21080;-71
2022/06/30 10:13:43;;;;;;;5.35;4.30;;;;;;;;;;1767878;80;21089;-72
2022/06/30 10:16:09;;;;;;;4.50;3.67;;;;;;;;;;1776538;80;21012;-70
2022/06/30 10:18:36;;;;;;;6.87;4.10;;;;;;;;;;1774925;80;21068;-71
2022/06/30 10:21:04;;;;;;;6.22;4.00;;;;;;;;;;1774502;80;21061;-71
2022/06/30 10:23:32;;;;;;;5.85;4.50;;;;;;;;;;1765314;80;21013;-70
2022/06/30 10:25:58;;;;;;;5.53;5.00;;;;;;;;;;1769807;81;21057;-72
2022/06/30 10:28:25;;;;;;;5.12;4.58;;;;;;;;;;1778040;80;21068;-71
2022/06/30 10:31:02;;;;;;;5.42;4.55;;;;;;;;;;1776001;81;21052;-70
2022/06/30 10:33:40;;;;;;;6.97;4.90;;;;;;;;;;1759910;81;21057;-68
2022/06/30 10:36:14;;;;;;;5.78;4.90;;;;;;;;;;1779061;81;20961;-67
2022/06/30 10:38:45;;;;;;;6.10;4.53;;;;;;;;;;1781764;80;21037;-66
2022/06/30 10:41:12;;;;;;;5.58;4.95;;;;;;;;;;1755034;80;21046;-67
2022/06/30 10:43:57;;;;;;;5.15;4.65;;;;;;;;;;1748721;82;21043;-67
2022/06/30 10:46:24;;;;;;;5.08;4.58;;;;;;;;;;1735139;80;21050;-68
2022/06/30 10:48:53;;;;;;;5.12;4.33;;;;;;;;;;1754548;80;22510;-67
2022/06/30 10:51:19;;;;;;;6.37;5.22;;;;;;;;;;1755783;80;21667;-67
2022/06/30 10:53:47;;;;;;;23.52;21.05;;;;;;;;;;1752629;80;21033;-70
2022/06/30 10:56:14;;;;;;;25.48;22.90;;;;;;;;;;1782149;80;21061;-70
2022/06/30 10:58:42;;;;;;;10.80;9.80;;;;;;;;;;1767647;80;21585;-68
2022/06/30 11:01:11;;;;;;;6.10;5.45;;;;;;;;;;1744491;80;21126;-70
2022/06/30 11:03:39;;;;;;;5.35;4.70;;;;;;;;;;1757293;80;21150;-67
2022/06/30 11:06:07;;;;;;;5.97;5.12;;;;;;;;;;1763814;80;21667;-71
2022/06/30 11:08:47;;;;;;;6.55;4.95;;;;;;;;;;1761554;80;21560;-71
2022/06/30 11:11:28;;;;;;;5.30;4.80;;;;;;;;;;1758054;80;21093;-72
2022/06/30 11:14:04;;;;;;;5.70;5.20;;;;;;;;;;1749313;81;21466;-73
2022/06/30 11:16:32;;;;;;;5.80;4.92;;;;;;;;;;1740334;82;21535;-73
2022/06/30 11:18:58;;;;;;;7.97;5.15;;;;;;;;;;1756004;81;21081;-72
2022/06/30 11:21:24;;;;;;;5.45;4.87;;;;;;;;;;1741516;82;21081;-73
2022/06/30 11:23:50;;;;;;;5.25;4.65;;;;;;;;;;1753004;81;21583;-71
2022/06/30 11:29:03;;;;;;;5.97;5.37;;;;;;;;;;1736328;82;20987;-71
2022/06/30 11:31:31;;;;;;;5.85;5.35;;;;;;;;;;1750927;82;21052;-73
2022/06/30 11:34:06;;;;;;;5.95;5.37;;;;;;;;;;1698446;83;22126;-72
2022/06/30 11:36:34;;;;;;;6.08;5.47;;;;;;;;;;1751086;82;21621;-72
2022/06/30 11:39:01;;;;;;;6.10;5.60;;;;;;;;;;1763838;79;21064;-74
2022/06/30 11:44:12;;;;;;;5.95;5.35;;;;;;;;;;1789684;80;20975;-72
2022/06/30 11:46:59;;;;;;;6.22;5.62;;;;;;;;;;1791005;80;21060;-72
2022/06/30 11:49:27;;;;;;;5.90;5.30;;;;;;;;;;1757183;80;21009;-71
2022/06/30 11:51:53;;;;;;;6.37;5.60;;;;;;;;;;1744545;81;21092;-71
2022/06/30 11:54:23;;;;;;;38.45;34.35;;;;;;;;;;1725316;82;21072;-73
2022/06/30 11:56:50;;;;;;;26.65;22.58;;;;;;;;;;1734790;82;21041;-74
2022/06/30 11:59:16;;;;;;;10.55;9.55;;;;;;;;;;1724242;82;21496;-73
2022/06/30 12:01:44;;;;;;;6.78;6.12;;;;;;;;;;1719168;82;21312;-76
2022/06/30 12:04:17;;;;;;;6.37;5.78;;;;;;;;;;1712362;83;21022;-72
2022/06/30 12:06:43;;;;;;;6.05;5.45;;;;;;;;;;1752327;80;21068;-70
2022/06/30 12:09:09;;;;;;;5.92;5.33;;;;;;;;;;1753533;80;20957;-72
2022/06/30 12:11:36;;;;;;;5.22;4.72;;;;;;;;;;1729532;81;21048;-73
2022/06/30 12:14:02;;;;;;;6.15;5.42;;;;;;;;;;1730860;82;21012;-71
2022/06/30 12:16:28;;;;;;;6.53;5.87;;;;;;;;;;1747593;82;21062;-74
2022/06/30 12:18:54;;;;;;;6.65;5.95;;;;;;;;;;1752735;80;21052;-74
2022/06/30 12:21:21;;;;;;;6.70;5.72;;;;;;;;;;1755737;82;21076;-72
2022/06/30 12:23:48;;;;;;;6.87;5.55;;;;;;;;;;1755379;82;22190;-72
2022/06/30 12:26:15;;;;;;;6.03;5.42;;;;;;;;;;1753491;80;20980;-72
2022/06/30 12:28:45;;;;;;;6.00;5.40;;;;;;;;;;1745592;82;20984;-72
2022/06/30 12:31:11;;;;;;;6.78;4.90;;;;;;;;;;1752878;82;20989;-74
2022/06/30 12:33:38;;;;;;;6.33;5.42;;;;;;;;;;1737713;81;22184;-72
2022/06/30 12:36:04;;;;;;;5.90;5.30;;;;;;;;;;1734711;82;21015;-72
2022/06/30 12:38:30;;;;;;;5.50;5.00;;;;;;;;;;1710346;82;21064;-72
2022/06/30 12:40:56;;;;;;;6.00;5.37;;;;;;;;;;1747606;82;21044;-72
2022/06/30 12:43:22;;;;;;;5.53;5.03;;;;;;;;;;1730128;82;21617;-74
2022/06/30 12:45:53;;;;;;;6.60;4.90;;;;;;;;;;1751889;82;21053;-74
2022/06/30 12:48:36;;;;;;;6.28;5.20;;;;;;;;;;1754822;82;21484;-72
2022/06/30 12:51:02;;;;;;;5.85;5.25;;;;;;;;;;1752754;82;21331;-73
2022/06/30 12:53:28;;;;;;;5.10;4.60;;;;;;;;;;1732650;82;21040;-73
2022/06/30 12:55:56;;;;;;;6.00;5.40;;;;;;;;;;1732456;82;21056;-72
2022/06/30 12:58:23;;;;;;;7.40;5.35;;;;;;;;;;1745370;82;21037;-73
2022/06/30 13:00:53;;;;;;;6.05;4.80;;;;;;;;;;1752586;80;21124;-72
2022/06/30 13:03:19;;;;;;;6.42;5.83;;;;;;;;;;1752507;82;21056;-70
2022/06/30 13:05:45;;;;;;;9.53;5.45;;;;;;;;;;1738198;80;21054;-69
2022/06/30 13:08:11;;;;;;;5.85;5.00;;;;;;;;;;1741872;80;21012;-69
2022/06/30 13:11:23;;;;;;;10.78;8.20;;;;;;;;;;1746665;82;21037;-71
2022/06/30 13:13:07;;;;;;;5.62;4.80;;;;;;;;;;1732334;80;21032;-72
2022/06/30 13:15:35;;;;;;;5.60;4.58;;;;;;;;;;1752164;80;21064;-70
2022/06/30 13:18:01;;;;;;;4.75;4.33;;;;;;;;;;1738427;82;21091;-71
2022/06/30 13:20:28;;;;;;;5.37;4.87;;;;;;;;;;1737134;81;21069;-72
2022/06/30 13:22:55;;;;;;;7.03;5.75;;;;;;;;;;1737592;81;21017;-72
2022/06/30 13:25:21;;;;;;;5.55;4.80;;;;;;;;;;1724300;82;21083;-71
2022/06/30 13:27:47;;;;;;;5.15;4.10;;;;;;;;;;1749648;82;21048;-71
2022/06/30 13:30:14;;;;;;;4.70;3.98;;;;;;;;;;1735454;82;21024;-71
2022/06/30 13:32:40;;;;;;;4.65;4.15;;;;;;;;;;1742298;82;20973;-71
2022/06/30 13:35:06;;;;;;;4.62;3.87;;;;;;;;;;1738717;82;21017;-75
2022/06/30 13:37:34;;;;;;;4.33;3.92;;;;;;;;;;1710227;83;21593;-73
2022/06/30 13:40:00;;;;;;;4.03;3.62;;;;;;;;;;1723722;82;21056;-71
2022/06/30 13:42:28;;;;;;;4.95;4.10;;;;;;;;;;1747945;81;21005;-71
2022/06/30 13:44:54;;;;;;;5.03;3.85;;;;;;;;;;1744164;81;21137;-72
2022/06/30 13:47:20;;;;;;;4.10;3.65;;;;;;;;;;1743234;81;21035;-71
2022/06/30 13:49:46;;;;;;;4.08;3.65;;;;;;;;;;1737506;82;21518;-74
2022/06/30 13:52:12;;;;;;;4.65;3.90;;;;;;;;;;1746891;81;21048;-74
2022/06/30 13:54:38;;;;;;;4.45;3.62;;;;;;;;;;1742310;81;21632;-71
2022/06/30 13:57:07;;;;;;;5.60;3.80;;;;;;;;;;1738722;82;21649;-73
2022/06/30 13:59:33;;;;;;;4.47;3.92;;;;;;;;;;1758050;80;21240;-73
2022/06/30 14:01:59;;;;;;;3.98;3.60;;;;;;;;;;1742843;80;21520;-73
2022/06/30 14:04:25;;;;;;;3.90;3.50;;;;;;;;;;1699974;83;21589;-72
2022/06/30 14:06:51;;;;;;;4.20;3.80;;;;;;;;;;1733514;82;21104;-73
2022/06/30 14:09:17;;;;;;;4.45;4.05;;;;;;;;;;1755092;82;21535;-72
2022/06/30 14:11:44;;;;;;;5.70;3.85;;;;;;;;;;1728886;82;21012;-73
2022/06/30 14:14:11;;;;;;;4.33;3.92;;;;;;;;;;1755157;82;21064;-72
2022/06/30 14:16:38;;;;;;;4.55;4.15;;;;;;;;;;1736575;82;21627;-72
2022/06/30 14:19:03;;;;;;;5.45;4.30;;;;;;;;;;1731880;82;21037;-72
2022/06/30 14:21:31;;;;;;;4.47;3.92;;;;;;;;;;1739691;82;21082;-72
2022/06/30 14:23:57;;;;;;;4.40;4.00;;;;;;;;;;1736394;82;21021;-72
2022/06/30 14:26:24;;;;;;;4.30;3.90;;;;;;;;;;1750435;82;21100;-71
2022/06/30 14:28:50;;;;;;;4.55;4.15;;;;;;;;;;1728918;82;21014;-72
2022/06/30 14:31:16;;;;;;;5.78;4.00;;;;;;;;;;1733360;82;21544;-71
2022/06/30 14:33:43;;;;;;;4.67;4.10;;;;;;;;;;1744127;82;21090;-70
2022/06/30 14:36:09;;;;;;;5.92;4.10;;;;;;;;;;1728303;82;21634;-71
2022/06/30 14:38:37;;;;;;;5.22;3.80;;;;;;;;;;1731986;82;21084;-72
2022/06/30 14:41:03;;;;;;;4.47;4.05;;;;;;;;;;1730066;82;21132;-72
2022/06/30 14:43:30;;;;;;;5.08;4.40;;;;;;;;;;1740615;82;21509;-72
2022/06/30 14:45:56;;;;;;;5.15;3.80;;;;;;;;;;1704318;83;21516;-72
2022/06/30 14:48:22;;;;;;;5.65;3.85;;;;;;;;;;1754183;82;21016;-71
2022/06/30 14:50:49;;;;;;;5.50;4.10;;;;;;;;;;1748252;82;21113;-72
2022/06/30 14:53:15;;;;;;;4.62;4.22;;;;;;;;;;1743702;82;21103;-71
2022/06/30 14:55:42;;;;;;;5.40;4.30;;;;;;;;;;1739667;82;21045;-72
2022/06/30 14:58:08;;;;;;;4.40;3.98;;;;;;;;;;1745028;82;21133;-72
2022/06/30 15:00:38;;;;;;;7.20;4.28;;;;;;;;;;1740277;82;21049;-71
2022/06/30 15:03:02;;;;;;;5.95;4.10;;;;;;;;;;1743869;82;21030;-72
2022/06/30 15:05:30;;;;;;;4.35;3.95;;;;;;;;;;1743665;82;21205;-72